Hauptseite
METAR-TAF:

METAR-TAF

Flughäfen :

Flughafen Linz

Linz, Österreich

Breite: 48-14N, Länge: 014-11E, Höhe: 298 m

Beobachtung

Neuester Wetterbericht von vor 16 Minuten, um 07:50 UTC
Wind 2 kt aus unterschiedlichen Richtungen
Temperatur 2°C
Luftfeuchtigkeit 80%
Luftdruck 1034 hPa
Sichtweite 10 km oder mehr
keine Wolken unter 1500 m und keine Kumulonimbus oder Gewitterwolken

METAR: LOWL 010750Z VRB02KT CAVOK 02/M01 Q1034 NOSIG

Zeit: 09:06 (08:06 UTC)

Prognose

Neuester Wetterbericht von vor 2 Stunden und 51 Minuten, um 05:15 UTC
Gültige Prognose vom 01 um 06 UTC bis 02 um 06 UTC
Wind 2 kt aus unterschiedlichen Richtungen
Sichtweite 10 km oder mehr
keine Wolken unter 1500 m und keine Kumulonimbus oder Gewitterwolken
Übergehend zu
vom 01 um 07 UTC bis 01 um 09 UTC
Wind 10 kt aus Ost

TAF: LOWL 010515Z 0106/0206 VRB02KT CAVOK TX10/0115Z TNM02/0106Z BECMG 0107/0109 09010KT

Wetterbeobachtungen und Prognosen von mehr als 4000 Flughäfen (METAR und TAF Bericht).

Die verfügbaren Stationen werden durch gelbe und rote Markierungen auf der Karte dargestellt.

Führen Sie die Maus auf sie, um den Namen der Station zu sehen.

Darauf klicken, um die Beobachtung von Wetterbeobachtungen und Prognosen zu sehen.

Um die Karte zu ändern : klicken Sie auf den grünen Tasten mit einem schwarzen Kreuz Zum Vergrößern, auf den grünen Button mit einem Gedankenstrich zu verkleinern, oder auf die grünen Pfeile für benachbarte Karten.


METAR-TAF: